Terminal Aerodrome Forecast
Issued by NWS Atlanta, GA

Home | Current Version | Previous Version | Text Only | Print | Product List | Glossary On
Versions: 1 2 3 4 5 6 7 8 9 10 11 12 13 14 15 16 17 18 19 20 21 22 23 24 25 26 27 28 29 30 31 32 33 34 35 36 37
509
FTUS42 KFFC 211011 AAB
TAFATL
TAF AMD
KATL 211011Z 2110/2212 05004KT P6SM FEW250
     FM211600 08005KT P6SM FEW040
     FM212000 12006KT P6SM FEW050
     FM220100 15005KT P6SM SCT150
     FM221000 18003KT P6SM SCT035=

USA.gov is the U.S. government's official web portal to all federal, state and local government web resources and services.